Impacts TAF Board INFO
FOR SITUATIONAL AWARENESS. NOT TO BE USED FOR FLIGHT PLANNING PURPOSES.
IDs:

KLGA - New York/La Guardia, NY, US

Issued at 0637 UTC 18 Feb 2018
Updated at 0651 UTC 18 Feb 2018
Potential Impact None Slight Moderate High
Time0643Z 18/07Z 18/08Z 18/09Z 18/10Z 18/11Z 18/12Z 18/13Z 18/14Z 18/15Z 18/16Z 18/17Z 18/18Z 18/19Z>>
Type OBS PRVL
  [TEMP]  
PRVL PRVL PRVL PRVL PRVL PRVL PRVL PRVL PRVL PRVL PRVL PRVL
VIS 3 4
  [2]  
4 >6 >6 >6 >6 >6 >6 >6 >6 >6 >6 >6
CIG 4 9
  [3]  
9 80 80 80 -- -- -- -- -- -- -- --
Cover OVC OVC
  [BKN]  
OVC BKN BKN BKN FEW FEW FEW FEW FEW FEW SKC SKC
FltCat LIFR IFR
  [LIFR]  
IFR VFR VFR VFR VFR VFR VFR VFR VFR VFR VFR VFR
WX BR BR
  [BR]  
BR -- -- -- -- -- -- -- -- -- -- --
WDir 350 40
[40]
40 300 300 300 320 320 320 320 320 320 290 290
WSpd 4 5
  [5]  
5 11 11 11 14 14 14 14 14 14 9 9
WGst -- --
  [--]  
-- -- -- -- 22 22 22 22 22 22 -- --

Raw TAF
KLGA 180637Z 1807/1912 04005KT 4SM BR SCT004 OVC009
  TEMPO 1807/1808 2SM BR BKN003
  FM180900 30011KT P6SM SCT008 BKN080
  FM181200 32014G22KT P6SM FEW035
  FM181800 29009KT P6SM SKC
  FM190000 VRB04KT P6SM SKC
  FM190800 16006KT P6SM SKC


Raw METAR
KLGA 180643Z 35004KT 3SM BR OVC004 01/01 A2996 RMK AO2 SFC VIS 4 T00110006 $
KLGA 180551Z 07004KT 1SM R04/P6000FT BR OVC003 01/00 A2996 RMK AO2 SFC VIS 2 SNE42 SLP145 931037 4/004 P0002 60054 T00060000 10006 20006 58036 $
KLGA 180521Z 04005KT 1SM R04/P6000FT -SN BR OVC003 01/00 A2998 RMK AO2 SFC VIS 2 PRESFR P0002 T00060000 $
KLGA 180509Z 04004KT 1SM R04/P6000FT -SN BR OVC002 01/00 A2999 RMK AO2 SFC VIS 2 P0001 T00060000 $
KLGA 180451Z 05006KT 1SM R04/P6000FT -SN BR OVC003 01/00 A3000 RMK AO2 SFC VIS 2 SLP158 P0005 T00060000 400391011 $
KLGA 180423Z 04006KT 1SM R04/P6000FT -SN BR OVC003 01/00 A3003 RMK AO2 SFC VIS 2 P0003 T00060000 $
KLGA 180351Z 03004KT 1SM R04/P6000FT -SN BR OVC004 01/00 A3004 RMK AO2 SFC VIS 2 SLP173 P0008 T00060000 $
KLGA 180334Z 02005KT 1SM R04/P6000FT -SN BR OVC004 01/00 A3006 RMK AO2 SFC VIS 2 P0005 T00060000 $

METAR Board
Radar Display
Forecast Discussion

FOR SITUATIONAL AWARENESS. NOT TO BE USED FOR FLIGHT PLANNING PURPOSES.